Decoded Metar for LFMV (AVIGNON in FRANCE) (IATA:AVN) | Meteo·Mobile Aviation Weather
aviador You're here:

LFMV Decoded Metar

AVIGNON in FRANCE
Report Time2018-12-14 11:30:00
UTC Time2018-12-14 11:55:03
Flight Rules vfr VFR
Wind340° at 12 kt
W.Decomp.*RWY 35: 11.8 kt HW 2.3 kt LCW
W.Rank340° ranks 3
Current wind is above 340° avg. (11.7)
Visibility9000 m
Phenomena:N/A
Clouds:N/A
Expected CloudBase > 2,000 ft AGL from Temp-Dew spread
CeilingNone
Temp07°C (ISA -8)
Dew Point02°C (71% RH)
AAT1.0°C
QNH1015 hPa
Density Alt-778 ft
Elevation125 ft
Report Wrong Elevation
Raw Report
LFMV 141130Z AUTO 34012KT 9000 NSC 07/02 Q1015 NOSIG=

Extra information for LFMV:More info

Metar Taf Metar & Taf Last 4 Metars F.Rules Stats Wind Profile Meteogram Temp Stats Airport Information Weather charts Add Link Nearby VenuesMetar ALERT Operation Metar Decoded Social comments